createdAt,value
2018-12-07T00:02:13.555Z,97002.72
2018-12-07T00:04:39.440Z,96999.70
2018-12-07T00:07:05.416Z,96991.95
2018-12-07T00:09:31.287Z,96985.42
2018-12-07T00:11:57.276Z,96983.23
2018-12-07T00:14:23.174Z,96990.73
2018-12-07T00:16:49.047Z,96997.08
2018-12-07T00:19:14.946Z,96992.34
2018-12-07T00:21:40.838Z,96991.69
2018-12-07T00:24:06.726Z,96992.41
2018-12-07T00:26:32.578Z,96992.23
2018-12-07T00:28:58.501Z,96990.61
2018-12-07T00:31:24.361Z,96989.35
2018-12-07T00:33:50.397Z,96981.15
2018-12-07T00:36:16.308Z,96984.27
2018-12-07T00:38:42.311Z,96984.23
2018-12-07T00:41:08.259Z,96975.70
2018-12-07T00:43:34.123Z,96970.81
2018-12-07T00:46:00.010Z,96969.73
2018-12-07T00:48:25.878Z,96964.47
2018-12-07T00:50:51.833Z,96959.44
2018-12-07T00:53:17.667Z,96957.81
2018-12-07T00:55:43.563Z,96950.00
2018-12-07T00:58:09.445Z,96952.37
2018-12-07T01:00:35.358Z,96947.63
2018-12-07T01:03:01.226Z,96893.36
2018-12-07T01:05:27.214Z,96948.67
2018-12-07T01:07:53.071Z,96953.10
2018-12-07T01:10:18.942Z,96959.33
2018-12-07T01:12:44.788Z,96955.38
2018-12-07T01:15:10.654Z,96950.10
2018-12-07T01:17:36.561Z,96952.44
2018-12-07T01:20:03.936Z,96956.16
2018-12-07T01:22:29.815Z,96956.16
2018-12-07T01:24:55.726Z,96952.84
2018-12-07T01:27:21.606Z,96958.09
2018-12-07T01:29:47.515Z,96955.15
2018-12-07T01:32:13.414Z,96935.06
2018-12-07T01:34:39.310Z,96955.56
2018-12-07T01:37:05.197Z,96955.56
2018-12-07T01:39:31.072Z,96955.73
2018-12-07T01:41:56.932Z,96959.52
2018-12-07T01:44:22.799Z,96955.56
2018-12-07T01:46:48.672Z,96949.92
2018-12-07T01:49:14.522Z,96947.83
2018-12-07T01:51:40.426Z,96956.20
2018-12-07T01:54:06.307Z,96956.20
2018-12-07T01:56:32.156Z,96956.34
2018-12-07T01:58:58.129Z,96948.02
2018-12-07T02:01:23.950Z,96944.34
2018-12-07T02:03:49.795Z,96939.61
2018-12-07T02:06:15.683Z,96943.87
2018-12-07T02:08:41.542Z,96945.19
2018-12-07T02:11:07.398Z,96938.05
2018-12-07T02:13:33.302Z,96926.73
2018-12-07T02:15:59.162Z,96928.89
2018-12-07T02:18:25.078Z,96924.70
2018-12-07T02:20:50.919Z,96917.19
2018-12-07T02:23:16.763Z,96911.44
2018-12-07T02:25:42.666Z,96912.89
2018-12-07T02:28:08.519Z,96905.16
2018-12-07T02:30:34.355Z,96908.27
2018-12-07T02:33:00.175Z,96908.03
2018-12-07T02:35:26.019Z,96901.20
2018-12-07T02:40:24.500Z,96894.73
2018-12-07T02:42:50.311Z,96889.23
2018-12-07T02:45:16.170Z,96887.36
2018-12-07T02:47:42.038Z,96874.83
2018-12-07T02:50:07.904Z,96883.41
2018-12-07T02:52:33.762Z,96882.19
2018-12-07T02:54:59.632Z,96876.75
2018-12-07T02:57:25.493Z,96869.23
2018-12-07T02:59:51.359Z,96863.49
2018-12-07T03:02:17.337Z,96857.13
2018-12-07T03:04:43.206Z,96851.32
2018-12-07T03:07:09.098Z,96848.84
2018-12-07T03:09:34.935Z,96848.30
2018-12-07T03:12:00.810Z,96842.25
2018-12-07T03:14:26.650Z,96835.55
2018-12-07T03:16:52.506Z,96836.44
2018-12-07T03:19:18.375Z,96835.35
2018-12-07T03:21:44.209Z,96827.70
2018-12-07T03:24:10.035Z,96830.03
2018-12-07T03:26:35.888Z,96825.53
2018-12-07T03:29:01.766Z,96822.52
2018-12-07T03:31:27.956Z,96822.36
2018-12-07T03:33:54.031Z,96820.05
2018-12-07T03:36:19.904Z,96824.92
2018-12-07T03:38:45.788Z,96825.74
2018-12-07T03:41:11.694Z,96823.34
2018-12-07T03:43:37.583Z,96825.98
2018-12-07T03:46:03.415Z,96818.53
2018-12-07T03:48:29.267Z,96820.32
2018-12-07T03:50:55.135Z,96830.64
2018-12-07T03:53:20.999Z,96817.45
2018-12-07T03:55:46.839Z,96819.23
2018-12-07T03:58:12.834Z,96821.41
2018-12-07T04:00:38.695Z,96822.88
2018-12-07T04:03:04.536Z,96816.05
2018-12-07T04:05:30.594Z,96816.52
2018-12-07T04:07:56.474Z,96810.39
2018-12-07T04:10:22.351Z,96810.66
2018-12-07T04:12:48.191Z,96801.70
2018-12-07T04:15:14.074Z,96805.84
2018-12-07T04:17:39.942Z,96802.66
2018-12-07T04:20:05.970Z,96791.87
2018-12-07T04:22:31.839Z,96793.66
2018-12-07T04:24:57.703Z,96794.36
2018-12-07T04:27:23.573Z,96795.06
2018-12-07T04:29:49.449Z,96783.73
2018-12-07T04:32:15.291Z,96785.90
2018-12-07T04:34:41.152Z,96786.13
2018-12-07T04:37:07.042Z,96782.09
2018-12-07T04:39:32.919Z,96773.82
2018-12-07T04:41:58.887Z,96777.16
2018-12-07T04:44:24.750Z,96775.61
2018-12-07T04:46:50.633Z,96771.18
2018-12-07T04:49:16.597Z,96773.82
2018-12-07T04:51:42.464Z,96770.64
2018-12-07T04:54:08.317Z,96768.31
2018-12-07T04:56:34.229Z,96765.67
2018-12-07T04:59:00.153Z,96762.41
2018-12-07T05:01:26.004Z,96764.58
2018-12-07T05:03:51.878Z,96766.45
2018-12-07T05:06:17.762Z,96766.19
2018-12-07T05:08:43.674Z,96762.53
2018-12-07T05:11:09.518Z,96756.35
2018-12-07T05:13:35.371Z,96757.67
2018-12-07T05:16:01.335Z,96745.72
2018-12-07T05:18:27.178Z,96746.80
2018-12-07T05:20:53.038Z,96743.70
2018-12-07T05:23:18.898Z,96745.48
2018-12-07T05:25:44.741Z,96747.42
2018-12-07T05:28:10.615Z,96739.20
2018-12-07T05:30:36.470Z,96738.73
2018-12-07T05:33:02.494Z,96742.84
2018-12-07T05:35:28.350Z,96735.78
2018-12-07T05:37:54.353Z,96721.50
2018-12-07T05:40:20.187Z,96722.81
2018-12-07T05:42:46.038Z,96724.05
2018-12-07T05:45:12.056Z,96724.52
2018-12-07T05:47:37.902Z,96713.64
2018-12-07T05:50:05.275Z,96713.52
2018-12-07T05:52:31.116Z,96714.11
2018-12-07T05:54:57.010Z,96723.03
2018-12-07T05:57:22.886Z,96715.20
2018-12-07T05:59:48.805Z,96707.20
2018-12-07T06:02:14.666Z,96714.11
2018-12-07T06:04:40.574Z,96718.06
2018-12-07T06:07:06.557Z,96714.34
2018-12-07T06:09:32.449Z,96713.98
2018-12-07T06:11:58.314Z,96720.39
2018-12-07T06:14:24.186Z,96712.89
2018-12-07T06:16:50.078Z,96712.11
2018-12-07T06:19:15.940Z,96720.50
2018-12-07T06:21:41.913Z,96715.61
2018-12-07T06:24:07.788Z,96720.89
2018-12-07T06:26:33.658Z,96716.62
2018-12-07T06:28:59.515Z,96720.27
2018-12-07T06:31:25.379Z,96708.47
2018-12-07T06:33:51.257Z,96709.47
2018-12-07T06:36:17.256Z,96716.98
2018-12-07T06:38:43.136Z,96718.80
2018-12-07T06:41:09.024Z,96632.80
2018-12-07T06:43:34.918Z,96718.30
2018-12-07T06:46:00.864Z,96711.96
2018-12-07T06:48:26.725Z,96705.10
2018-12-07T06:50:52.587Z,96713.80
2018-12-07T06:53:18.435Z,96717.06
2018-12-07T06:55:44.325Z,96704.87
2018-12-07T06:58:10.220Z,96709.37
2018-12-07T07:00:36.064Z,96701.14
2018-12-07T07:03:01.936Z,96701.14
2018-12-07T07:05:27.787Z,96703.55
2018-12-07T07:07:53.661Z,96698.27
2018-12-07T07:10:19.522Z,96694.31
2018-12-07T07:12:45.372Z,96695.40
2018-12-07T07:15:11.233Z,96702.23
2018-12-07T07:17:37.089Z,96701.55
2018-12-07T07:20:04.283Z,96705.20
2018-12-07T07:22:30.157Z,96705.89
2018-12-07T07:24:56.018Z,96707.98
2018-12-07T07:27:21.989Z,96714.45
2018-12-07T07:29:47.822Z,96713.59
2018-12-07T07:32:13.809Z,96705.12
2018-12-07T07:34:39.730Z,96706.91
2018-12-07T07:37:05.599Z,96703.09
2018-12-07T07:39:31.506Z,96702.00
2018-12-07T07:41:57.385Z,96701.77
2018-12-07T07:44:23.267Z,96695.40
2018-12-07T07:46:49.103Z,96695.58
2018-12-07T07:49:14.951Z,96689.20
2018-12-07T07:51:40.824Z,96694.08
2018-12-07T07:54:06.786Z,96686.70
2018-12-07T07:56:32.755Z,96683.28
2018-12-07T07:58:58.654Z,96672.09
2018-12-07T08:01:24.527Z,96680.47
2018-12-07T08:03:50.392Z,96673.95
2018-12-07T08:06:16.261Z,96674.64
2018-12-07T08:08:42.123Z,96671.23
2018-12-07T08:11:08.012Z,96665.80
2018-12-07T08:13:33.865Z,96671.69
2018-12-07T08:15:59.743Z,96661.44
2018-12-07T08:18:25.629Z,96662.21
2018-12-07T08:20:51.482Z,96655.37
2018-12-07T08:23:17.355Z,96657.25
2018-12-07T08:25:43.220Z,96657.33
2018-12-07T08:28:09.117Z,96655.23
2018-12-07T08:30:34.981Z,96649.27
2018-12-07T08:33:00.850Z,96645.45
2018-12-07T08:35:26.815Z,96648.41
2018-12-07T08:37:52.835Z,96643.91
2018-12-07T08:40:18.739Z,96639.48
2018-12-07T08:42:44.650Z,96636.84
2018-12-07T08:45:10.866Z,96635.61
2018-12-07T08:47:36.846Z,96628.23
2018-12-07T08:50:04.183Z,96627.00
2018-12-07T08:52:30.047Z,96619.53
2018-12-07T08:54:55.926Z,96623.18
2018-12-07T08:57:21.795Z,96625.19
2018-12-07T08:59:47.703Z,96620.53
2018-12-07T09:02:13.679Z,96620.30
2018-12-07T09:04:39.664Z,96625.18
2018-12-07T09:07:05.543Z,96615.94
2018-12-07T09:09:31.526Z,96611.52
2018-12-07T09:11:57.365Z,96610.25
2018-12-07T09:14:23.223Z,96610.42
2018-12-07T09:16:49.122Z,96604.05
2018-12-07T09:19:14.994Z,96605.42
2018-12-07T09:21:40.979Z,96598.45
2018-12-07T09:24:06.956Z,96598.50
2018-12-07T09:26:32.800Z,96593.77
2018-12-07T09:28:58.631Z,96583.42
2018-12-07T09:31:24.487Z,96588.94
2018-12-07T09:33:50.331Z,96577.30
2018-12-07T09:36:16.284Z,96572.80
2018-12-07T09:38:42.140Z,96576.44
2018-12-07T09:41:08.000Z,96570.20
2018-12-07T09:43:33.847Z,96561.73
2018-12-07T09:45:59.717Z,96554.03
2018-12-07T09:48:25.596Z,96554.25
2018-12-07T09:50:51.447Z,96556.52
2018-12-07T09:53:17.343Z,96544.84
2018-12-07T09:55:43.193Z,96537.83
2018-12-07T09:58:09.066Z,96543.17
2018-12-07T10:00:34.938Z,96526.70
2018-12-07T10:03:00.842Z,96523.74
2018-12-07T10:05:26.679Z,96516.59
2018-12-07T10:07:52.537Z,96523.55
2018-12-07T10:10:18.391Z,96511.43
2018-12-07T10:12:44.296Z,96512.98
2018-12-07T10:15:10.147Z,96501.86
2018-12-07T10:17:36.025Z,96510.34
2018-12-07T10:20:02.306Z,96507.14
2018-12-07T10:22:28.160Z,96505.15
2018-12-07T10:24:54.032Z,96505.92
2018-12-07T10:27:19.904Z,96494.13
2018-12-07T10:29:45.776Z,96494.35
2018-12-07T10:32:11.623Z,96477.72
2018-12-07T10:34:37.495Z,96482.01
2018-12-07T10:37:03.332Z,96471.34
2018-12-07T10:39:29.311Z,96471.11
2018-12-07T10:41:55.159Z,96392.03
2018-12-07T10:44:21.195Z,96459.87
2018-12-07T10:46:47.163Z,96463.73
2018-12-07T10:49:13.043Z,96457.77
2018-12-07T10:51:38.898Z,96448.97
2018-12-07T10:54:04.740Z,96443.47
2018-12-07T10:56:30.631Z,96447.66
2018-12-07T10:58:56.502Z,96450.74
2018-12-07T11:01:28.533Z,96439.75
2018-12-07T11:04:00.612Z,96442.29
2018-12-07T11:06:32.755Z,96439.58
2018-12-07T11:09:02.632Z,96428.25
2018-12-07T11:11:34.515Z,96421.31
2018-12-07T11:14:06.638Z,96420.66
2018-12-07T11:16:38.672Z,96406.50
2018-12-07T11:19:10.707Z,96402.20
2018-12-07T11:21:42.660Z,96394.49
2018-12-07T11:24:14.567Z,96385.23
2018-12-07T11:26:46.609Z,96376.21
2018-12-07T11:29:14.480Z,96376.11
2018-12-07T11:31:42.369Z,96383.83
2018-12-07T11:34:10.246Z,96384.52
2018-12-07T11:36:36.127Z,96349.61
2018-12-07T11:39:05.424Z,96372.17
2018-12-07T11:41:31.311Z,96371.48
2018-12-07T11:43:57.170Z,96365.09
2018-12-07T11:46:23.055Z,96372.91
2018-12-07T11:48:48.892Z,96368.17
2018-12-07T11:51:14.783Z,96369.17
2018-12-07T11:53:40.644Z,96360.56
2018-12-07T11:56:06.618Z,96349.51
2018-12-07T11:58:32.474Z,96356.34
2018-12-07T12:00:58.343Z,96354.25
2018-12-07T12:03:24.219Z,96348.07
2018-12-07T12:05:50.150Z,96340.25
2018-12-07T12:08:16.035Z,96342.22
2018-12-07T12:10:41.893Z,96336.67
2018-12-07T12:13:07.775Z,96333.09
2018-12-07T12:15:33.642Z,96337.02
2018-12-07T12:17:59.519Z,96328.56
2018-12-07T12:20:25.390Z,96322.41
2018-12-07T12:22:51.267Z,96313.94
2018-12-07T12:25:17.123Z,96322.75
2018-12-07T12:27:43.062Z,96314.38
2018-12-07T12:30:09.003Z,96306.67
2018-12-07T13:09:30.639Z,96213.74
2018-12-07T13:17:39.847Z,96191.91
2018-12-07T13:20:07.087Z,96184.98
2018-12-07T13:22:33.814Z,96182.21
2018-12-07T13:25:00.127Z,96179.37
2018-12-07T13:27:26.341Z,96178.48
2018-12-07T13:29:52.230Z,96173.63
2018-12-07T13:32:18.116Z,96174.73
2018-12-07T13:34:44.247Z,96172.20
2018-12-07T13:37:10.237Z,96153.48
2018-12-07T13:39:36.868Z,96150.06
2018-12-07T13:42:03.018Z,96153.26
2018-12-07T13:44:29.305Z,96146.20
2018-12-07T13:46:55.580Z,96155.23
2018-12-07T13:49:21.858Z,96143.22
2018-12-07T13:51:47.944Z,96137.16
2018-12-07T13:54:14.179Z,96126.59
2018-12-07T13:56:40.339Z,96139.35
2018-12-07T13:59:06.463Z,96139.80
2018-12-07T14:01:32.925Z,96143.22
2018-12-07T14:03:59.103Z,96133.41
2018-12-07T14:06:32.448Z,96133.62
2018-12-07T14:08:58.478Z,96131.11
2018-12-07T14:11:24.544Z,96117.78
2018-12-07T14:13:50.768Z,96113.05
2018-12-07T14:16:16.799Z,96114.25
2018-12-07T14:18:42.705Z,96108.63
2018-12-07T14:21:08.749Z,96101.91
2018-12-07T14:23:35.897Z,96105.42
2018-12-07T14:26:02.450Z,96093.98
2018-12-07T14:28:28.655Z,96100.92
2018-12-07T14:30:55.074Z,96097.39
2018-12-07T14:33:21.271Z,96087.48
2018-12-07T14:35:47.548Z,96088.03
2018-12-07T14:38:13.683Z,96085.17
2018-12-07T14:40:39.724Z,96090.34
2018-12-07T14:43:05.778Z,96089.91
2018-12-07T14:45:31.971Z,96082.08
2018-12-07T14:47:58.051Z,96079.98
2018-12-07T14:50:24.091Z,96074.92
2018-12-07T14:52:50.244Z,96073.17
2018-12-07T14:55:16.608Z,96070.41
2018-12-07T14:57:42.800Z,96070.30
2018-12-07T15:00:09.152Z,96071.52
2018-12-07T15:02:35.557Z,96068.45
2018-12-07T15:05:02.057Z,96066.66
2018-12-07T15:07:28.257Z,96059.18
2018-12-07T15:09:54.395Z,96060.05
2018-12-07T15:12:20.518Z,96055.00
2018-12-07T15:14:46.530Z,96037.06
2018-12-07T15:17:12.528Z,96030.34
2018-12-07T15:19:38.566Z,96034.09
2018-12-07T15:22:04.702Z,96026.16
2018-12-07T15:24:30.843Z,96024.84
2018-12-07T15:26:57.170Z,96024.95
2018-12-07T15:29:23.316Z,96010.95
2018-12-07T15:31:49.246Z,96002.60
2018-12-07T15:34:15.150Z,95984.32
2018-12-07T15:36:41.139Z,95970.89
2018-12-07T15:39:07.146Z,95968.67
2018-12-07T15:41:33.401Z,95949.19
2018-12-07T15:43:59.694Z,95954.94
2018-12-07T15:46:25.834Z,95946.67
2018-12-07T15:48:52.092Z,95943.35
2018-12-07T15:51:18.289Z,95944.23
2018-12-07T15:53:44.354Z,95928.72
2018-12-07T15:56:10.452Z,95919.16
2018-12-07T15:58:37.090Z,95894.61
2018-12-07T16:01:03.249Z,95896.50
2018-12-07T16:03:29.278Z,95893.31
2018-12-07T16:05:55.909Z,95898.38
2018-12-07T16:08:25.070Z,95890.98
2018-12-07T16:10:50.001Z,95903.98
2018-12-07T16:13:16.105Z,95902.23
2018-12-07T16:15:42.412Z,95910.05
2018-12-07T16:18:09.739Z,95900.36
2018-12-07T16:20:36.180Z,95897.41
2018-12-07T16:23:02.111Z,95897.17
2018-12-07T16:25:28.108Z,95884.31
2018-12-07T16:27:54.233Z,95857.81
2018-12-07T16:30:20.375Z,95878.81
2018-12-07T16:32:46.643Z,95888.06
2018-12-07T16:35:12.708Z,95880.46
2018-12-07T16:37:38.744Z,95887.81
2018-12-07T16:40:12.827Z,95884.75
2018-12-07T16:42:38.912Z,95881.33
2018-12-07T16:45:05.262Z,95880.78
2018-12-07T16:47:31.316Z,95882.10
2018-12-07T16:49:57.415Z,95891.45
2018-12-07T16:52:23.386Z,95892.11
2018-12-07T16:54:49.637Z,95875.06
2018-12-07T16:57:15.693Z,95881.67
2018-12-07T16:59:41.835Z,95875.97
2018-12-07T17:02:07.910Z,95872.86
2018-12-07T17:04:33.979Z,95869.57
2018-12-07T17:07:00.091Z,95860.34
2018-12-07T17:09:26.256Z,95854.63
2018-12-07T17:11:52.279Z,95849.78
2018-12-07T17:14:18.185Z,95839.23
2018-12-07T17:16:44.208Z,95832.86
2018-12-07T17:19:10.291Z,95829.02
2018-12-07T17:21:36.591Z,95821.52
2018-12-07T17:24:02.766Z,95816.93
2018-12-07T17:26:28.925Z,95817.78
2018-12-07T17:28:55.073Z,95822.30
2018-12-07T17:31:21.112Z,95822.73
2018-12-07T17:33:47.332Z,95828.23
2018-12-07T17:36:13.509Z,95819.45
2018-12-07T17:38:39.412Z,95819.77
2018-12-07T17:41:05.425Z,95809.00
2018-12-07T17:43:31.647Z,95815.36
2018-12-07T17:45:57.737Z,95800.66
2018-12-07T17:48:23.883Z,95803.72
2018-12-07T17:50:49.906Z,95806.58
2018-12-07T17:53:15.905Z,95797.34
2018-12-07T17:55:42.191Z,95791.63
2018-12-07T17:58:08.516Z,95800.98
2018-12-07T18:00:34.800Z,95800.44
2018-12-07T18:03:00.719Z,95802.30
2018-12-07T18:05:26.814Z,95803.52
2018-12-07T18:07:52.965Z,95812.75
2018-12-07T18:10:18.943Z,95803.17
2018-12-07T18:12:45.146Z,95804.93
2018-12-07T18:15:11.369Z,95806.58
2018-12-07T18:17:37.380Z,95779.44
2018-12-07T18:20:04.737Z,95781.19
2018-12-07T18:22:30.777Z,95763.18
2018-12-07T18:24:56.719Z,95760.85
2018-12-07T18:27:22.754Z,95760.85
2018-12-07T18:29:48.823Z,95754.38
2018-12-07T18:32:14.759Z,95741.06
2018-12-07T18:34:40.917Z,95723.82
2018-12-07T18:37:06.976Z,95722.72
2018-12-07T18:39:33.139Z,95728.22
2018-12-07T18:41:59.202Z,95713.06
2018-12-07T18:44:25.451Z,95715.03
2018-12-07T18:46:51.722Z,95707.45
2018-12-07T18:49:18.008Z,95708.98
2018-12-07T18:51:44.224Z,95713.92
2018-12-07T18:54:11.156Z,95701.72
2018-12-07T18:56:37.167Z,95703.48
2018-12-07T18:59:03.258Z,95707.76
2018-12-07T19:01:29.421Z,95698.86
2018-12-07T19:03:55.578Z,95714.69
2018-12-07T19:06:21.869Z,95713.80
2018-12-07T19:08:48.136Z,95715.34
2018-12-07T19:11:14.415Z,95723.47
2018-12-07T19:13:40.532Z,95722.80
2018-12-07T19:16:06.536Z,95710.27
2018-12-07T19:18:32.577Z,95692.91
2018-12-07T19:20:58.590Z,95689.59
2018-12-07T19:23:24.978Z,95698.28
2018-12-07T19:25:51.338Z,95700.61
2018-12-07T19:28:17.553Z,95700.95
2018-12-07T19:30:43.727Z,95691.38
2018-12-07T19:33:09.897Z,95695.91
2018-12-07T19:35:36.001Z,95694.25
2018-12-07T19:38:02.171Z,95690.63
2018-12-07T19:40:28.387Z,95680.08
2018-12-07T19:42:54.381Z,95678.55
2018-12-07T19:45:21.008Z,95661.95
2018-12-07T19:47:47.241Z,95665.91
2018-12-07T19:50:13.342Z,95666.34
2018-12-07T19:52:39.390Z,95671.28
2018-12-07T19:55:05.783Z,95679.56
2018-12-07T19:57:31.929Z,95680.52
2018-12-07T19:59:57.943Z,95670.76
2018-12-07T20:02:23.841Z,95673.70
2018-12-07T20:04:49.778Z,95672.84
2018-12-07T20:07:15.956Z,95659.10
2018-12-07T20:09:42.464Z,95654.04
2018-12-07T20:12:08.744Z,95662.96
2018-12-07T20:14:34.819Z,95661.95
2018-12-07T20:17:00.708Z,95664.28
2018-12-07T20:19:26.664Z,95671.11
2018-12-07T20:21:52.571Z,95665.29
2018-12-07T20:24:18.478Z,95657.70
2018-12-07T20:26:44.674Z,95661.47
2018-12-07T20:29:10.807Z,95660.36
2018-12-07T20:31:37.063Z,95660.26
2018-12-07T20:34:03.363Z,95653.01
2018-12-07T20:36:29.604Z,95652.36
2018-12-07T20:38:55.870Z,95650.83
2018-12-07T20:41:21.847Z,95651.27
2018-12-07T20:43:47.730Z,95649.30
2018-12-07T20:46:13.722Z,95635.45
2018-12-07T20:48:39.692Z,95639.52
2018-12-07T20:51:05.811Z,95638.53
2018-12-07T20:53:31.976Z,95631.63
2018-12-07T20:55:58.304Z,95637.23
2018-12-07T20:58:24.509Z,95632.39
2018-12-07T21:00:59.018Z,95628.53
2018-12-07T21:03:37.678Z,95618.55
2018-12-07T21:06:34.885Z,95626.02
2018-12-07T21:09:20.485Z,95619.09
2018-12-07T21:11:50.284Z,95614.84
2018-12-07T21:14:20.116Z,95621.64
2018-12-07T21:19:49.341Z,95603.06
2018-12-07T21:22:16.770Z,95608.46
2018-12-07T21:24:42.981Z,95598.91
2018-12-07T21:27:09.652Z,95604.61
2018-12-07T21:29:35.788Z,95622.94
2018-12-07T21:32:05.908Z,95627.77
2018-12-07T21:34:55.343Z,95618.98
2018-12-07T21:37:21.593Z,95631.06
2018-12-07T21:39:48.060Z,95627.20
2018-12-07T21:42:14.106Z,95637.19
2018-12-07T21:44:40.463Z,95633.59
2018-12-07T21:47:06.393Z,95627.55
2018-12-07T21:49:33.976Z,95626.11
2018-12-07T21:52:13.823Z,95638.72
2018-12-07T21:54:39.838Z,95637.40
2018-12-07T21:57:06.086Z,95625.66
2018-12-07T21:59:32.368Z,95638.81
2018-12-07T22:01:58.354Z,95629.25
2018-12-07T22:04:24.530Z,95639.92
2018-12-07T22:06:50.682Z,95650.47
2018-12-07T22:09:16.729Z,95636.30
2018-12-07T22:11:42.938Z,95634.55
2018-12-07T22:14:09.242Z,95639.48
2018-12-07T22:16:35.221Z,95641.14
2018-12-07T22:19:01.213Z,95626.52
2018-12-07T22:21:27.180Z,95631.03
2018-12-07T22:23:53.099Z,95616.19
2018-12-07T22:26:19.292Z,95644.21
2018-12-07T22:28:45.292Z,95643.78
2018-12-07T22:31:11.728Z,95652.80
2018-12-07T22:33:37.844Z,95648.94
2018-12-07T22:36:04.020Z,95639.03
2018-12-07T22:38:30.240Z,95647.28
2018-12-07T22:40:56.266Z,95652.34
2018-12-07T22:43:22.525Z,95649.05
2018-12-07T22:45:48.682Z,95656.84
2018-12-07T22:48:14.743Z,95666.95
2018-12-07T22:50:40.707Z,95662.56
2018-12-07T22:53:06.699Z,95673.77
2018-12-07T22:55:32.580Z,95663.68
2018-12-07T22:57:58.595Z,95667.52
2018-12-07T23:00:24.759Z,95687.59
2018-12-07T23:02:50.822Z,95703.08
2018-12-07T23:05:16.745Z,95701.55
2018-12-07T23:07:42.677Z,95699.30
2018-12-07T23:10:09.004Z,95713.67
2018-12-07T23:12:34.864Z,95727.69
2018-12-07T23:15:00.721Z,95738.88
2018-12-07T23:17:26.644Z,95753.68
2018-12-07T23:19:52.527Z,95743.77
2018-12-07T23:22:18.445Z,95743.32
2018-12-07T23:24:44.327Z,95768.95
2018-12-07T23:27:10.195Z,95745.91
2018-12-07T23:29:36.094Z,95737.14
2018-12-07T23:32:01.974Z,95749.20
2018-12-07T23:34:27.873Z,95738.66
2018-12-07T23:36:53.788Z,95739.32
2018-12-07T23:39:19.689Z,95756.37
2018-12-07T23:41:45.592Z,95740.26
2018-12-07T23:44:11.593Z,95738.83
2018-12-07T23:46:37.581Z,95758.82
2018-12-07T23:49:03.719Z,95752.70
2018-12-07T23:51:29.684Z,95751.98
2018-12-07T23:53:55.555Z,95743.58
2018-12-07T23:56:21.453Z,95739.95
2018-12-07T23:58:47.368Z,95745.34
